sensor_id;sensor_type;location;lat;lon;timestamp;temperature;humidity
1405;DHT22;697;51.114;6.542;2023-03-01T00:02:19;3.70;68.90
1405;DHT22;697;51.114;6.542;2023-03-01T00:04:46;3.70;69.10
1405;DHT22;697;51.114;6.542;2023-03-01T00:07:12;3.60;69.20
1405;DHT22;697;51.114;6.542;2023-03-01T00:09:39;3.60;69.20
1405;DHT22;697;51.114;6.542;2023-03-01T00:12:07;3.60;69.40
1405;DHT22;697;51.114;6.542;2023-03-01T00:14:35;3.50;69.40
1405;DHT22;697;51.114;6.542;2023-03-01T00:17:02;3.50;70.00
1405;DHT22;697;51.114;6.542;2023-03-01T00:19:29;3.40;70.00
1405;DHT22;697;51.114;6.542;2023-03-01T00:21:57;3.40;70.40
1405;DHT22;697;51.114;6.542;2023-03-01T00:24:24;3.30;70.70
1405;DHT22;697;51.114;6.542;2023-03-01T00:26:53;3.30;71.60
1405;DHT22;697;51.114;6.542;2023-03-01T00:29:22;3.30;72.10
1405;DHT22;697;51.114;6.542;2023-03-01T00:31:48;3.20;72.00
1405;DHT22;697;51.114;6.542;2023-03-01T00:34:15;3.20;72.30
1405;DHT22;697;51.114;6.542;2023-03-01T00:36:42;3.20;72.70
1405;DHT22;697;51.114;6.542;2023-03-01T00:39:11;3.20;73.00
1405;DHT22;697;51.114;6.542;2023-03-01T00:41:38;3.20;73.30
1405;DHT22;697;51.114;6.542;2023-03-01T00:44:05;3.10;72.90
1405;DHT22;697;51.114;6.542;2023-03-01T00:46:33;3.00;73.00
1405;DHT22;697;51.114;6.542;2023-03-01T00:49:00;3.00;73.40
1405;DHT22;697;51.114;6.542;2023-03-01T00:51:28;2.90;73.50
1405;DHT22;697;51.114;6.542;2023-03-01T00:53:56;2.90;73.60
1405;DHT22;697;51.114;6.542;2023-03-01T00:56:24;2.90;73.60
1405;DHT22;697;51.114;6.542;2023-03-01T00:58:51;2.80;73.70
1405;DHT22;697;51.114;6.542;2023-03-01T01:01:19;2.80;74.00
1405;DHT22;697;51.114;6.542;2023-03-01T01:03:49;2.80;74.20
1405;DHT22;697;51.114;6.542;2023-03-01T01:06:18;2.80;74.30
1405;DHT22;697;51.114;6.542;2023-03-01T01:08:45;2.80;74.60
1405;DHT22;697;51.114;6.542;2023-03-01T01:11:12;2.70;74.50
1405;DHT22;697;51.114;6.542;2023-03-01T01:13:39;2.70;74.60
1405;DHT22;697;51.114;6.542;2023-03-01T01:16:07;2.60;74.70
1405;DHT22;697;51.114;6.542;2023-03-01T01:18:34;2.60;74.90
1405;DHT22;697;51.114;6.542;2023-03-01T01:21:06;2.60;74.90
1405;DHT22;697;51.114;6.542;2023-03-01T01:23:33;2.60;74.90
1405;DHT22;697;51.114;6.542;2023-03-01T01:26:03;2.60;75.10
1405;DHT22;697;51.114;6.542;2023-03-01T01:28:31;2.50;75.80
1405;DHT22;697;51.114;6.542;2023-03-01T01:30:57;2.50;75.30
1405;DHT22;697;51.114;6.542;2023-03-01T01:33:24;2.50;75.70
1405;DHT22;697;51.114;6.542;2023-03-01T01:35:52;2.50;76.00
1405;DHT22;697;51.114;6.542;2023-03-01T01:38:20;2.40;76.20
1405;DHT22;697;51.114;6.542;2023-03-01T01:40:49;2.40;76.20
1405;DHT22;697;51.114;6.542;2023-03-01T01:43:20;2.40;76.30
1405;DHT22;697;51.114;6.542;2023-03-01T01:45:47;2.40;76.70
1405;DHT22;697;51.114;6.542;2023-03-01T01:48:18;2.40;76.90
1405;DHT22;697;51.114;6.542;2023-03-01T01:50:50;2.30;76.90
1405;DHT22;697;51.114;6.542;2023-03-01T01:53:21;2.20;76.80
1405;DHT22;697;51.114;6.542;2023-03-01T01:55:51;2.20;76.80
1405;DHT22;697;51.114;6.542;2023-03-01T01:58:20;2.10;77.00
1405;DHT22;697;51.114;6.542;2023-03-01T02:00:48;2.10;77.10
1405;DHT22;697;51.114;6.542;2023-03-01T02:03:18;2.10;77.10
1405;DHT22;697;51.114;6.542;2023-03-01T02:05:50;2.00;77.30
1405;DHT22;697;51.114;6.542;2023-03-01T02:08:20;2.00;77.50
1405;DHT22;697;51.114;6.542;2023-03-01T02:10:49;2.00;77.80
1405;DHT22;697;51.114;6.542;2023-03-01T02:13:17;2.00;78.00
1405;DHT22;697;51.114;6.542;2023-03-01T02:15:44;2.00;77.90
1405;DHT22;697;51.114;6.542;2023-03-01T02:18:12;2.00;77.90
1405;DHT22;697;51.114;6.542;2023-03-01T02:20:45;1.90;77.60
1405;DHT22;697;51.114;6.542;2023-03-01T02:23:15;1.90;78.20
1405;DHT22;697;51.114;6.542;2023-03-01T02:25:48;1.80;78.20
1405;DHT22;697;51.114;6.542;2023-03-01T02:28:30;1.80;78.90
1405;DHT22;697;51.114;6.542;2023-03-01T02:30:57;1.80;79.10
1405;DHT22;697;51.114;6.542;2023-03-01T02:33:43;1.70;79.20
1405;DHT22;697;51.114;6.542;2023-03-01T02:36:14;1.70;79.60
1405;DHT22;697;51.114;6.542;2023-03-01T02:38:42;1.70;79.60
1405;DHT22;697;51.114;6.542;2023-03-01T02:41:12;1.70;79.60
1405;DHT22;697;51.114;6.542;2023-03-01T02:43:41;1.70;79.80
1405;DHT22;697;51.114;6.542;2023-03-01T02:46:14;1.70;80.10
1405;DHT22;697;51.114;6.542;2023-03-01T02:48:43;1.70;80.00
1405;DHT22;697;51.114;6.542;2023-03-01T02:51:33;1.70;80.00
1405;DHT22;697;51.114;6.542;2023-03-01T02:54:09;1.60;79.90
1405;DHT22;697;51.114;6.542;2023-03-01T02:56:37;1.60;79.90
1405;DHT22;697;51.114;6.542;2023-03-01T02:59:05;1.50;79.80
1405;DHT22;697;51.114;6.542;2023-03-01T03:01:32;1.50;80.20
1405;DHT22;697;51.114;6.542;2023-03-01T03:04:04;1.50;80.40
1405;DHT22;697;51.114;6.542;2023-03-01T03:06:31;1.50;80.60
1405;DHT22;697;51.114;6.542;2023-03-01T03:08:58;1.40;80.50
1405;DHT22;697;51.114;6.542;2023-03-01T03:11:25;1.40;80.30
1405;DHT22;697;51.114;6.542;2023-03-01T03:13:52;1.30;80.20
1405;DHT22;697;51.114;6.542;2023-03-01T03:16:20;1.30;80.50
1405;DHT22;697;51.114;6.542;2023-03-01T03:18:47;1.20;80.50
1405;DHT22;697;51.114;6.542;2023-03-01T03:21:14;1.20;80.80
1405;DHT22;697;51.114;6.542;2023-03-01T03:23:41;1.20;80.90
1405;DHT22;697;51.114;6.542;2023-03-01T03:26:08;1.20;81.00
1405;DHT22;697;51.114;6.542;2023-03-01T03:28:40;1.10;81.10
1405;DHT22;697;51.114;6.542;2023-03-01T03:31:07;1.10;81.60
1405;DHT22;697;51.114;6.542;2023-03-01T03:33:35;1.10;81.70
1405;DHT22;697;51.114;6.542;2023-03-01T03:36:03;1.10;81.90
1405;DHT22;697;51.114;6.542;2023-03-01T03:38:30;1.10;82.10
1405;DHT22;697;51.114;6.542;2023-03-01T03:41:01;1.10;82.40
1405;DHT22;697;51.114;6.542;2023-03-01T03:43:29;1.10;82.50
1405;DHT22;697;51.114;6.542;2023-03-01T03:45:56;1.00;82.20
1405;DHT22;697;51.114;6.542;2023-03-01T03:48:24;1.00;82.20
1405;DHT22;697;51.114;6.542;2023-03-01T03:50:53;1.00;82.60
1405;DHT22;697;51.114;6.542;2023-03-01T03:53:21;0.90;82.60
1405;DHT22;697;51.114;6.542;2023-03-01T03:55:48;0.90;82.70
1405;DHT22;697;51.114;6.542;2023-03-01T03:58:17;0.90;82.70
1405;DHT22;697;51.114;6.542;2023-03-01T04:00:46;0.80;82.80
1405;DHT22;697;51.114;6.542;2023-03-01T04:03:14;0.80;82.90
1405;DHT22;697;51.114;6.542;2023-03-01T04:05:41;0.70;83.20
1405;DHT22;697;51.114;6.542;2023-03-01T04:08:10;0.70;83.40
1405;DHT22;697;51.114;6.542;2023-03-01T04:10:39;0.80;83.90
1405;DHT22;697;51.114;6.542;2023-03-01T04:13:09;0.70;84.00
1405;DHT22;697;51.114;6.542;2023-03-01T04:15:37;0.70;83.80
1405;DHT22;697;51.114;6.542;2023-03-01T04:18:05;0.70;83.80
1405;DHT22;697;51.114;6.542;2023-03-01T04:20:34;0.70;84.20
1405;DHT22;697;51.114;6.542;2023-03-01T04:23:02;0.70;84.40
1405;DHT22;697;51.114;6.542;2023-03-01T04:25:37;0.70;84.90
1405;DHT22;697;51.114;6.542;2023-03-01T04:28:04;0.60;84.80
1405;DHT22;697;51.114;6.542;2023-03-01T04:30:31;0.60;84.70
1405;DHT22;697;51.114;6.542;2023-03-01T04:33:01;0.60;84.70
1405;DHT22;697;51.114;6.542;2023-03-01T04:35:28;0.60;84.70
1405;DHT22;697;51.114;6.542;2023-03-01T04:37:54;0.60;84.50
1405;DHT22;697;51.114;6.542;2023-03-01T04:40:21;0.60;85.40
1405;DHT22;697;51.114;6.542;2023-03-01T04:42:49;0.60;84.60
1405;DHT22;697;51.114;6.542;2023-03-01T04:45:16;0.60;84.90
1405;DHT22;697;51.114;6.542;2023-03-01T04:47:44;0.60;85.30
1405;DHT22;697;51.114;6.542;2023-03-01T04:50:13;0.60;85.50
1405;DHT22;697;51.114;6.542;2023-03-01T04:52:40;0.50;85.50
1405;DHT22;697;51.114;6.542;2023-03-01T04:55:08;0.50;85.10
1405;DHT22;697;51.114;6.542;2023-03-01T04:57:35;0.50;84.90
1405;DHT22;697;51.114;6.542;2023-03-01T05:00:04;0.50;84.90
1405;DHT22;697;51.114;6.542;2023-03-01T05:02:46;0.40;85.00
1405;DHT22;697;51.114;6.542;2023-03-01T05:05:13;0.40;84.70
1405;DHT22;697;51.114;6.542;2023-03-01T05:07:40;0.30;84.70
1405;DHT22;697;51.114;6.542;2023-03-01T05:10:08;0.20;84.80
1405;DHT22;697;51.114;6.542;2023-03-01T05:12:34;0.20;84.70
1405;DHT22;697;51.114;6.542;2023-03-01T05:15:05;0.20;84.80
1405;DHT22;697;51.114;6.542;2023-03-01T05:17:32;0.10;84.90
1405;DHT22;697;51.114;6.542;2023-03-01T05:19:59;0.10;85.60
1405;DHT22;697;51.114;6.542;2023-03-01T05:22:26;0.10;86.40
1405;DHT22;697;51.114;6.542;2023-03-01T05:24:53;0.10;86.70
1405;DHT22;697;51.114;6.542;2023-03-01T05:27:20;0.10;87.00
1405;DHT22;697;51.114;6.542;2023-03-01T05:29:48;0.10;87.10
1405;DHT22;697;51.114;6.542;2023-03-01T05:32:16;0.10;87.00
1405;DHT22;697;51.114;6.542;2023-03-01T05:34:42;0.10;86.90
1405;DHT22;697;51.114;6.542;2023-03-01T05:37:12;0.10;86.70
1405;DHT22;697;51.114;6.542;2023-03-01T05:39:39;0.10;86.90
1405;DHT22;697;51.114;6.542;2023-03-01T05:42:10;0.10;86.70
1405;DHT22;697;51.114;6.542;2023-03-01T05:44:37;0.10;86.70
1405;DHT22;697;51.114;6.542;2023-03-01T05:47:04;0.10;87.20
1405;DHT22;697;51.114;6.542;2023-03-01T05:49:33;0.00;87.30
1405;DHT22;697;51.114;6.542;2023-03-01T05:52:00;0.00;87.30
1405;DHT22;697;51.114;6.542;2023-03-01T05:54:26;0.00;87.40
1405;DHT22;697;51.114;6.542;2023-03-01T05:56:53;-0.10;87.50
1405;DHT22;697;51.114;6.542;2023-03-01T05:59:20;-0.10;87.60
1405;DHT22;697;51.114;6.542;2023-03-01T06:01:46;-0.10;87.70
1405;DHT22;697;51.114;6.542;2023-03-01T06:04:13;-0.10;87.70
1405;DHT22;697;51.114;6.542;2023-03-01T06:06:41;-0.10;87.80
1405;DHT22;697;51.114;6.542;2023-03-01T06:09:08;-0.10;87.90
1405;DHT22;697;51.114;6.542;2023-03-01T06:11:36;-0.10;87.90
1405;DHT22;697;51.114;6.542;2023-03-01T06:14:03;-0.10;87.90
1405;DHT22;697;51.114;6.542;2023-03-01T06:16:31;-0.10;87.70
1405;DHT22;697;51.114;6.542;2023-03-01T06:18:58;-0.10;87.50
1405;DHT22;697;51.114;6.542;2023-03-01T06:21:25;-0.10;87.20
1405;DHT22;697;51.114;6.542;2023-03-01T06:23:53;-0.10;87.10
1405;DHT22;697;51.114;6.542;2023-03-01T06:26:19;-0.10;87.80
1405;DHT22;697;51.114;6.542;2023-03-01T06:28:46;-0.10;88.00
1405;DHT22;697;51.114;6.542;2023-03-01T06:31:13;-0.10;88.00
1405;DHT22;697;51.114;6.542;2023-03-01T06:33:40;-0.10;88.00
1405;DHT22;697;51.114;6.542;2023-03-01T06:36:07;-0.10;88.00
1405;DHT22;697;51.114;6.542;2023-03-01T06:38:35;-0.10;88.00
1405;DHT22;697;51.114;6.542;2023-03-01T06:41:03;-0.10;88.00
1405;DHT22;697;51.114;6.542;2023-03-01T06:43:30;-0.10;87.70
1405;DHT22;697;51.114;6.542;2023-03-01T06:45:57;-0.10;87.80
1405;DHT22;697;51.114;6.542;2023-03-01T06:48:24;-0.10;88.00
1405;DHT22;697;51.114;6.542;2023-03-01T06:50:50;-0.10;88.10
1405;DHT22;697;51.114;6.542;2023-03-01T06:53:17;-0.10;88.10
1405;DHT22;697;51.114;6.542;2023-03-01T06:55:44;-0.10;88.20
1405;DHT22;697;51.114;6.542;2023-03-01T06:58:12;-0.10;88.20
1405;DHT22;697;51.114;6.542;2023-03-01T07:00:38;0.00;88.30
1405;DHT22;697;51.114;6.542;2023-03-01T07:03:06;0.00;88.60
1405;DHT22;697;51.114;6.542;2023-03-01T07:05:33;-0.10;88.90
1405;DHT22;697;51.114;6.542;2023-03-01T07:08:01;-0.10;89.20
1405;DHT22;697;51.114;6.542;2023-03-01T07:10:27;0.00;89.60
1405;DHT22;697;51.114;6.542;2023-03-01T07:12:55;0.00;89.80
1405;DHT22;697;51.114;6.542;2023-03-01T07:15:23;0.00;89.80
1405;DHT22;697;51.114;6.542;2023-03-01T07:17:50;0.00;89.70
1405;DHT22;697;51.114;6.542;2023-03-01T07:20:18;0.00;89.90
1405;DHT22;697;51.114;6.542;2023-03-01T07:22:46;0.00;90.30
1405;DHT22;697;51.114;6.542;2023-03-01T07:25:13;0.00;90.50
1405;DHT22;697;51.114;6.542;2023-03-01T07:27:40;0.00;90.70
1405;DHT22;697;51.114;6.542;2023-03-01T07:30:08;0.00;91.00
1405;DHT22;697;51.114;6.542;2023-03-01T07:32:36;0.10;91.30
1405;DHT22;697;51.114;6.542;2023-03-01T07:35:03;0.20;91.50
1405;DHT22;697;51.114;6.542;2023-03-01T07:37:30;0.20;91.70
1405;DHT22;697;51.114;6.542;2023-03-01T07:39:57;0.30;91.80
1405;DHT22;697;51.114;6.542;2023-03-01T07:42:24;0.30;91.80
1405;DHT22;697;51.114;6.542;2023-03-01T07:44:50;0.40;92.00
1405;DHT22;697;51.114;6.542;2023-03-01T07:47:17;0.40;92.00
1405;DHT22;697;51.114;6.542;2023-03-01T07:49:45;0.50;92.10
1405;DHT22;697;51.114;6.542;2023-03-01T07:52:12;0.60;92.30
1405;DHT22;697;51.114;6.542;2023-03-01T07:54:39;0.70;92.40
1405;DHT22;697;51.114;6.542;2023-03-01T07:57:08;0.70;92.50
1405;DHT22;697;51.114;6.542;2023-03-01T07:59:35;0.80;92.60
1405;DHT22;697;51.114;6.542;2023-03-01T08:02:02;0.80;92.50
1405;DHT22;697;51.114;6.542;2023-03-01T08:04:28;0.90;92.60
1405;DHT22;697;51.114;6.542;2023-03-01T08:06:56;0.90;92.70
1405;DHT22;697;51.114;6.542;2023-03-01T08:09:23;1.00;92.70
1405;DHT22;697;51.114;6.542;2023-03-01T08:11:50;1.10;92.70
1405;DHT22;697;51.114;6.542;2023-03-01T08:14:16;1.20;92.70
1405;DHT22;697;51.114;6.542;2023-03-01T08:16:43;1.20;92.50
1405;DHT22;697;51.114;6.542;2023-03-01T08:19:11;1.30;92.50
1405;DHT22;697;51.114;6.542;2023-03-01T08:21:39;1.30;92.50
1405;DHT22;697;51.114;6.542;2023-03-01T08:24:08;1.40;92.50
1405;DHT22;697;51.114;6.542;2023-03-01T08:26:36;1.40;92.60
1405;DHT22;697;51.114;6.542;2023-03-01T08:29:03;1.50;92.60
1405;DHT22;697;51.114;6.542;2023-03-01T08:31:32;1.60;92.50
1405;DHT22;697;51.114;6.542;2023-03-01T08:34:02;1.70;92.50
1405;DHT22;697;51.114;6.542;2023-03-01T08:36:31;1.80;92.40
1405;DHT22;697;51.114;6.542;2023-03-01T08:38:59;1.80;92.30
1405;DHT22;697;51.114;6.542;2023-03-01T08:41:27;1.90;92.20
1405;DHT22;697;51.114;6.542;2023-03-01T08:43:55;2.00;92.30
1405;DHT22;697;51.114;6.542;2023-03-01T08:46:24;2.10;92.20
1405;DHT22;697;51.114;6.542;2023-03-01T08:48:51;2.10;92.00
1405;DHT22;697;51.114;6.542;2023-03-01T08:51:19;2.20;91.90
1405;DHT22;697;51.114;6.542;2023-03-01T08:53:46;2.30;91.90
1405;DHT22;697;51.114;6.542;2023-03-01T08:56:14;2.40;92.00
1405;DHT22;697;51.114;6.542;2023-03-01T08:58:45;2.40;92.10
1405;DHT22;697;51.114;6.542;2023-03-01T09:01:13;2.50;91.80
1405;DHT22;697;51.114;6.542;2023-03-01T09:03:41;2.60;91.50
1405;DHT22;697;51.114;6.542;2023-03-01T09:06:08;2.60;91.20
1405;DHT22;697;51.114;6.542;2023-03-01T09:08:35;2.70;90.90
1405;DHT22;697;51.114;6.542;2023-03-01T09:11:02;2.80;90.70
1405;DHT22;697;51.114;6.542;2023-03-01T09:13:29;2.80;91.10
1405;DHT22;697;51.114;6.542;2023-03-01T09:16:00;2.90;90.60
1405;DHT22;697;51.114;6.542;2023-03-01T09:18:27;3.00;90.30
1405;DHT22;697;51.114;6.542;2023-03-01T09:21:00;3.10;90.20
1405;DHT22;697;51.114;6.542;2023-03-01T09:23:27;3.20;90.10
1405;DHT22;697;51.114;6.542;2023-03-01T09:25:53;3.30;90.00
1405;DHT22;697;51.114;6.542;2023-03-01T09:28:20;3.40;89.50
1405;DHT22;697;51.114;6.542;2023-03-01T09:30:48;3.40;89.40
1405;DHT22;697;51.114;6.542;2023-03-01T09:33:16;3.50;89.20
1405;DHT22;697;51.114;6.542;2023-03-01T09:35:43;3.60;88.70
1405;DHT22;697;51.114;6.542;2023-03-01T09:38:12;3.80;88.50
1405;DHT22;697;51.114;6.542;2023-03-01T09:40:42;3.90;86.90
1405;DHT22;697;51.114;6.542;2023-03-01T09:43:17;4.00;86.20
1405;DHT22;697;51.114;6.542;2023-03-01T09:45:45;4.10;85.70
1405;DHT22;697;51.114;6.542;2023-03-01T09:48:18;4.20;84.60
1405;DHT22;697;51.114;6.542;2023-03-01T09:50:47;4.40;83.40
1405;DHT22;697;51.114;6.542;2023-03-01T09:53:17;4.50;81.90
1405;DHT22;697;51.114;6.542;2023-03-01T09:55:45;4.60;80.80
1405;DHT22;697;51.114;6.542;2023-03-01T09:58:30;4.80;79.80
1405;DHT22;697;51.114;6.542;2023-03-01T10:01:00;4.90;78.50
1405;DHT22;697;51.114;6.542;2023-03-01T10:03:35;5.10;77.30
1405;DHT22;697;51.114;6.542;2023-03-01T10:06:08;5.20;76.10
1405;DHT22;697;51.114;6.542;2023-03-01T10:08:40;5.40;75.60
1405;DHT22;697;51.114;6.542;2023-03-01T10:11:19;5.60;75.00
1405;DHT22;697;51.114;6.542;2023-03-01T10:13:50;5.80;73.80
1405;DHT22;697;51.114;6.542;2023-03-01T10:16:22;6.00;72.40
1405;DHT22;697;51.114;6.542;2023-03-01T10:18:55;6.30;70.90
1405;DHT22;697;51.114;6.542;2023-03-01T10:21:23;6.60;69.00
1405;DHT22;697;51.114;6.542;2023-03-01T10:23:51;6.90;67.50
1405;DHT22;697;51.114;6.542;2023-03-01T10:26:31;7.20;65.20
1405;DHT22;697;51.114;6.542;2023-03-01T10:29:02;7.60;62.90
1405;DHT22;697;51.114;6.542;2023-03-01T10:31:38;8.00;60.00
1405;DHT22;697;51.114;6.542;2023-03-01T10:34:10;8.60;58.40
1405;DHT22;697;51.114;6.542;2023-03-01T10:36:39;9.10;56.30
1405;DHT22;697;51.114;6.542;2023-03-01T10:39:12;9.60;54.50
1405;DHT22;697;51.114;6.542;2023-03-01T10:41:53;10.20;51.70
1405;DHT22;697;51.114;6.542;2023-03-01T10:44:41;10.80;48.80
1405;DHT22;697;51.114;6.542;2023-03-01T10:47:15;11.40;46.80
1405;DHT22;697;51.114;6.542;2023-03-01T10:50:04;12.00;45.20
1405;DHT22;697;51.114;6.542;2023-03-01T10:52:33;12.50;42.30
1405;DHT22;697;51.114;6.542;2023-03-01T10:55:02;13.00;40.90
1405;DHT22;697;51.114;6.542;2023-03-01T10:57:36;13.50;39.50
1405;DHT22;697;51.114;6.542;2023-03-01T11:00:22;14.00;38.50
1405;DHT22;697;51.114;6.542;2023-03-01T11:03:01;14.60;37.00
1405;DHT22;697;51.114;6.542;2023-03-01T11:05:29;15.00;36.20
1405;DHT22;697;51.114;6.542;2023-03-01T11:08:00;15.50;34.40
1405;DHT22;697;51.114;6.542;2023-03-01T11:10:30;15.90;33.40
1405;DHT22;697;51.114;6.542;2023-03-01T11:13:07;16.20;33.10
1405;DHT22;697;51.114;6.542;2023-03-01T11:15:35;16.60;31.70
1405;DHT22;697;51.114;6.542;2023-03-01T11:18:02;16.90;31.50
1405;DHT22;697;51.114;6.542;2023-03-01T11:20:33;17.20;30.80
1405;DHT22;697;51.114;6.542;2023-03-01T11:23:04;17.50;30.30
1405;DHT22;697;51.114;6.542;2023-03-01T11:25:35;17.90;30.10
1405;DHT22;697;51.114;6.542;2023-03-01T11:28:05;18.20;29.20
1405;DHT22;697;51.114;6.542;2023-03-01T11:30:35;18.50;29.00
1405;DHT22;697;51.114;6.542;2023-03-01T11:33:13;18.80;28.10
1405;DHT22;697;51.114;6.542;2023-03-01T11:35:47;19.10;27.40
1405;DHT22;697;51.114;6.542;2023-03-01T11:38:20;19.30;26.90
1405;DHT22;697;51.114;6.542;2023-03-01T11:40:52;19.50;26.90
1405;DHT22;697;51.114;6.542;2023-03-01T11:43:26;19.80;26.70
1405;DHT22;697;51.114;6.542;2023-03-01T11:49:03;20.40;26.30
1405;DHT22;697;51.114;6.542;2023-03-01T11:51:41;20.80;25.80
1405;DHT22;697;51.114;6.542;2023-03-01T11:54:26;21.10;25.30
1405;DHT22;697;51.114;6.542;2023-03-01T11:56:57;21.40;25.60
1405;DHT22;697;51.114;6.542;2023-03-01T11:59:44;21.60;24.60
1405;DHT22;697;51.114;6.542;2023-03-01T12:05:20;22.20;23.90
1405;DHT22;697;51.114;6.542;2023-03-01T12:07:56;22.40;24.00
1405;DHT22;697;51.114;6.542;2023-03-01T12:10:27;22.60;23.60
1405;DHT22;697;51.114;6.542;2023-03-01T12:13:23;22.80;23.50
1405;DHT22;697;51.114;6.542;2023-03-01T12:16:07;23.00;23.20
1405;DHT22;697;51.114;6.542;2023-03-01T12:18:58;23.20;23.00
1405;DHT22;697;51.114;6.542;2023-03-01T12:21:39;23.60;22.80
1405;DHT22;697;51.114;6.542;2023-03-01T12:24:27;23.80;22.50
1405;DHT22;697;51.114;6.542;2023-03-01T12:27:12;24.10;22.30
1405;DHT22;697;51.114;6.542;2023-03-01T12:29:50;24.40;22.30
1405;DHT22;697;51.114;6.542;2023-03-01T12:32:25;24.60;22.70
1405;DHT22;697;51.114;6.542;2023-03-01T12:35:27;24.80;21.90
1405;DHT22;697;51.114;6.542;2023-03-01T12:38:08;24.80;21.50
1405;DHT22;697;51.114;6.542;2023-03-01T12:41:00;24.90;21.80
1405;DHT22;697;51.114;6.542;2023-03-01T12:43:40;25.20;21.80
1405;DHT22;697;51.114;6.542;2023-03-01T12:46:19;25.40;21.70
1405;DHT22;697;51.114;6.542;2023-03-01T12:48:55;25.50;20.90
1405;DHT22;697;51.114;6.542;2023-03-01T12:51:30;25.60;20.90
1405;DHT22;697;51.114;6.542;2023-03-01T12:53:59;25.60;20.30
1405;DHT22;697;51.114;6.542;2023-03-01T12:56:31;25.60;20.40
1405;DHT22;697;51.114;6.542;2023-03-01T12:59:04;25.70;21.00
1405;DHT22;697;51.114;6.542;2023-03-01T13:01:39;25.70;20.00
1405;DHT22;697;51.114;6.542;2023-03-01T13:04:32;25.70;20.20
1405;DHT22;697;51.114;6.542;2023-03-01T13:07:14;26.00;20.30
1405;DHT22;697;51.114;6.542;2023-03-01T13:09:52;26.10;19.80
1405;DHT22;697;51.114;6.542;2023-03-01T13:12:50;26.20;19.90
1405;DHT22;697;51.114;6.542;2023-03-01T13:15:29;26.40;19.60
1405;DHT22;697;51.114;6.542;2023-03-01T13:17:57;26.40;19.80
1405;DHT22;697;51.114;6.542;2023-03-01T13:20:26;26.60;19.40
1405;DHT22;697;51.114;6.542;2023-03-01T13:23:03;26.30;19.40
1405;DHT22;697;51.114;6.542;2023-03-01T13:25:30;26.30;19.50
1405;DHT22;697;51.114;6.542;2023-03-01T13:30:57;26.20;20.10
1405;DHT22;697;51.114;6.542;2023-03-01T13:33:40;26.40;19.90
1405;DHT22;697;51.114;6.542;2023-03-01T13:36:09;26.50;19.20
1405;DHT22;697;51.114;6.542;2023-03-01T13:38:45;26.60;19.50
1405;DHT22;697;51.114;6.542;2023-03-01T13:41:12;26.60;19.00
1405;DHT22;697;51.114;6.542;2023-03-01T13:43:41;26.50;18.90
1405;DHT22;697;51.114;6.542;2023-03-01T13:46:15;26.40;19.20
1405;DHT22;697;51.114;6.542;2023-03-01T13:48:45;26.50;19.40
1405;DHT22;697;51.114;6.542;2023-03-01T13:51:14;26.60;19.50
1405;DHT22;697;51.114;6.542;2023-03-01T13:53:43;26.60;19.20
1405;DHT22;697;51.114;6.542;2023-03-01T13:56:13;26.40;19.20
1405;DHT22;697;51.114;6.542;2023-03-01T13:58:49;26.50;19.30
1405;DHT22;697;51.114;6.542;2023-03-01T14:01:29;26.50;19.20
1405;DHT22;697;51.114;6.542;2023-03-01T14:03:56;26.50;19.30
1405;DHT22;697;51.114;6.542;2023-03-01T14:06:24;26.60;19.30
1405;DHT22;697;51.114;6.542;2023-03-01T14:09:02;26.70;19.30
1405;DHT22;697;51.114;6.542;2023-03-01T14:17:27;26.60;18.90
1405;DHT22;697;51.114;6.542;2023-03-01T14:19:59;26.50;19.50
1405;DHT22;697;51.114;6.542;2023-03-01T14:22:29;26.60;19.40
1405;DHT22;697;51.114;6.542;2023-03-01T14:24:58;26.50;18.80
1405;DHT22;697;51.114;6.542;2023-03-01T14:27:27;26.40;19.50
1405;DHT22;697;51.114;6.542;2023-03-01T14:29:56;26.40;20.00
1405;DHT22;697;51.114;6.542;2023-03-01T14:32:26;26.50;19.90
1405;DHT22;697;51.114;6.542;2023-03-01T14:34:54;26.40;19.00
1405;DHT22;697;51.114;6.542;2023-03-01T14:37:24;26.30;19.20
1405;DHT22;697;51.114;6.542;2023-03-01T14:39:53;26.30;19.50
1405;DHT22;697;51.114;6.542;2023-03-01T14:42:21;26.20;19.60
1405;DHT22;697;51.114;6.542;2023-03-01T14:44:50;26.20;19.60
1405;DHT22;697;51.114;6.542;2023-03-01T14:47:25;26.20;19.90
1405;DHT22;697;51.114;6.542;2023-03-01T14:49:57;26.00;20.20
1405;DHT22;697;51.114;6.542;2023-03-01T14:52:31;25.90;20.10
1405;DHT22;697;51.114;6.542;2023-03-01T14:55:01;25.90;20.10
1405;DHT22;697;51.114;6.542;2023-03-01T14:57:28;25.80;20.00
1405;DHT22;697;51.114;6.542;2023-03-01T14:59:58;25.70;20.20
1405;DHT22;697;51.114;6.542;2023-03-01T15:02:28;25.50;20.30
1405;DHT22;697;51.114;6.542;2023-03-01T15:04:57;25.40;20.70
1405;DHT22;697;51.114;6.542;2023-03-01T15:07:29;25.20;20.60
1405;DHT22;697;51.114;6.542;2023-03-01T15:09:57;25.00;20.50
1405;DHT22;697;51.114;6.542;2023-03-01T15:12:40;24.80;21.10
1405;DHT22;697;51.114;6.542;2023-03-01T15:15:21;24.60;21.20
1405;DHT22;697;51.114;6.542;2023-03-01T15:17:53;24.50;21.50
1405;DHT22;697;51.114;6.542;2023-03-01T15:20:23;24.10;20.90
1405;DHT22;697;51.114;6.542;2023-03-01T15:22:53;23.70;21.50
1405;DHT22;697;51.114;6.542;2023-03-01T15:25:23;23.40;22.10
1405;DHT22;697;51.114;6.542;2023-03-01T15:27:51;23.10;22.30
1405;DHT22;697;51.114;6.542;2023-03-01T15:30:21;22.90;22.50
1405;DHT22;697;51.114;6.542;2023-03-01T15:33:16;22.70;21.70
1405;DHT22;697;51.114;6.542;2023-03-01T15:35:47;22.40;22.40
1405;DHT22;697;51.114;6.542;2023-03-01T15:38:31;22.20;22.70
1405;DHT22;697;51.114;6.542;2023-03-01T15:40:59;22.10;23.70
1405;DHT22;697;51.114;6.542;2023-03-01T15:43:43;21.90;23.20
1405;DHT22;697;51.114;6.542;2023-03-01T15:46:19;21.60;23.50
1405;DHT22;697;51.114;6.542;2023-03-01T15:48:51;21.30;23.50
1405;DHT22;697;51.114;6.542;2023-03-01T15:51:23;21.20;23.40
1405;DHT22;697;51.114;6.542;2023-03-01T15:53:53;20.90;23.90
1405;DHT22;697;51.114;6.542;2023-03-01T15:56:20;20.60;24.00
1405;DHT22;697;51.114;6.542;2023-03-01T15:58:47;20.30;24.10
1405;DHT22;697;51.114;6.542;2023-03-01T16:01:15;20.00;24.20
1405;DHT22;697;51.114;6.542;2023-03-01T16:03:43;19.60;24.80
1405;DHT22;697;51.114;6.542;2023-03-01T16:06:12;19.10;25.40
1405;DHT22;697;51.114;6.542;2023-03-01T16:08:39;18.50;26.00
1405;DHT22;697;51.114;6.542;2023-03-01T16:11:13;17.80;26.80
1405;DHT22;697;51.114;6.542;2023-03-01T16:13:40;17.20;27.60
1405;DHT22;697;51.114;6.542;2023-03-01T16:16:08;16.60;28.30
1405;DHT22;697;51.114;6.542;2023-03-01T16:18:37;16.00;28.60
1405;DHT22;697;51.114;6.542;2023-03-01T16:21:04;15.50;29.20
1405;DHT22;697;51.114;6.542;2023-03-01T16:23:33;15.00;29.80
1405;DHT22;697;51.114;6.542;2023-03-01T16:26:00;14.60;30.50
1405;DHT22;697;51.114;6.542;2023-03-01T16:28:27;14.20;31.10
1405;DHT22;697;51.114;6.542;2023-03-01T16:30:53;13.90;31.70
1405;DHT22;697;51.114;6.542;2023-03-01T16:33:20;13.50;32.20
1405;DHT22;697;51.114;6.542;2023-03-01T16:35:47;13.20;32.60
1405;DHT22;697;51.114;6.542;2023-03-01T16:38:14;12.80;32.70
1405;DHT22;697;51.114;6.542;2023-03-01T16:40:47;12.50;33.00
1405;DHT22;697;51.114;6.542;2023-03-01T16:43:13;12.30;34.00
1405;DHT22;697;51.114;6.542;2023-03-01T16:45:40;12.00;34.20
1405;DHT22;697;51.114;6.542;2023-03-01T16:48:10;11.90;35.10
1405;DHT22;697;51.114;6.542;2023-03-01T16:50:36;11.70;35.80
1405;DHT22;697;51.114;6.542;2023-03-01T16:53:03;11.60;35.60
1405;DHT22;697;51.114;6.542;2023-03-01T16:55:30;11.40;36.10
1405;DHT22;697;51.114;6.542;2023-03-01T16:57:58;11.30;36.70
1405;DHT22;697;51.114;6.542;2023-03-01T17:00:25;11.10;36.30
1405;DHT22;697;51.114;6.542;2023-03-01T17:02:52;11.00;36.60